Vadnais Heights, Minnesota
Current Conditions -  °F | °C
As of 2:11 PM on Friday 28 Nov 2014 (Local Time) from K21D Reporting Station
Overcast Overcast  
Wind Chill: 14°   Ceiling: 2000
Heat Index: 23°   Visibility: 10mi
Dew Point: 16°   Wind: 8mph
Humidity: 74%   Direction: 130°SE
Pressure: 29.86"   Gusts: NA
Location:  45.0958°N, 93.0043°W
Report Text: K21D 282011Z AUTO 13007KT 10SM BKN020 OVC070 M05/M09 A2986 RMK AO2
Loading
Personal Weather Stations






























Interactive Weather Map New forecast layout! Learn more

10-Day Weather Forecast

Advertisements
Track Severe Weather on mobile